createdAt,value
2023-03-13T00:01:17.705Z,23.10
2023-03-13T00:04:19.538Z,26.65
2023-03-13T00:07:21.082Z,29.35
2023-03-13T00:10:22.663Z,28.05
2023-03-13T00:13:24.446Z,27.77
2023-03-13T00:16:27.953Z,30.40
2023-03-13T00:19:29.596Z,22.05
2023-03-13T00:22:31.149Z,28.65
2023-03-13T00:25:32.817Z,31.63
2023-03-13T00:28:36.036Z,22.75
2023-03-13T00:31:37.751Z,30.33
2023-03-13T00:34:39.372Z,33.90
2023-03-13T00:37:40.967Z,32.05
2023-03-13T00:40:42.574Z,33.33
2023-03-13T00:43:45.277Z,31.20
2023-03-13T00:46:47.036Z,29.02
2023-03-13T00:49:48.662Z,36.13
2023-03-13T00:52:50.182Z,30.55
2023-03-13T00:56:13.667Z,26.77
2023-03-13T00:59:15.428Z,31.92
2023-03-13T01:02:17.151Z,33.67
2023-03-13T01:05:18.743Z,31.00
2023-03-13T01:08:20.277Z,29.58
2023-03-13T01:11:25.077Z,21.42
2023-03-13T01:14:26.658Z,27.60
2023-03-13T01:17:28.258Z,33.40
2023-03-13T01:20:30.857Z,25.42
2023-03-13T01:23:32.882Z,26.90
2023-03-13T01:26:34.609Z,30.30
2023-03-13T01:29:36.159Z,27.80
2023-03-13T01:32:37.733Z,38.15
2023-03-13T01:35:39.372Z,31.98
2023-03-13T01:38:41.304Z,32.47
2023-03-13T01:41:42.934Z,28.02
2023-03-13T01:44:50.656Z,32.10
2023-03-13T01:47:52.713Z,30.63
2023-03-13T01:50:56.754Z,28.05
2023-03-13T01:54:01.851Z,45.75
2023-03-13T01:57:08.249Z,26.88
2023-03-13T02:00:17.598Z,39.17
2023-03-13T02:03:20.993Z,31.17
2023-03-13T02:06:22.697Z,34.55
2023-03-13T02:09:26.860Z,31.88
2023-03-13T02:12:33.718Z,30.30
2023-03-13T02:15:35.314Z,34.22
2023-03-13T02:18:38.192Z,35.55
2023-03-13T02:21:54.693Z,36.28
2023-03-13T02:24:59.563Z,31.00
2023-03-13T02:28:05.748Z,27.13
2023-03-13T02:31:08.609Z,28.48
2023-03-13T02:34:10.916Z,32.40
2023-03-13T02:37:14.133Z,34.08
2023-03-13T02:40:20.536Z,26.95
2023-03-13T02:43:30.378Z,27.50
2023-03-13T02:46:43.089Z,31.48
2023-03-13T02:49:44.776Z,20.48
2023-03-13T02:52:50.526Z,21.70
2023-03-13T02:55:52.655Z,25.80
2023-03-13T02:58:54.209Z,20.00
2023-03-13T03:01:55.790Z,28.35
2023-03-13T03:04:57.397Z,25.23
2023-03-13T03:07:58.917Z,21.17
2023-03-13T03:11:00.607Z,22.25
2023-03-13T03:14:02.323Z,32.67
2023-03-13T03:17:03.916Z,20.45
2023-03-13T03:20:11.726Z,16.02
2023-03-13T03:23:13.284Z,24.88
2023-03-13T03:26:14.882Z,19.17
2023-03-13T03:29:16.473Z,21.38
2023-03-13T03:32:18.069Z,20.70
2023-03-13T03:35:19.642Z,19.67
2023-03-13T03:38:21.219Z,23.20
2023-03-13T03:41:22.892Z,15.43
2023-03-13T03:44:24.499Z,15.82
2023-03-13T03:47:26.210Z,13.43
2023-03-13T03:50:28.062Z,12.73
2023-03-13T03:53:29.675Z,16.40
2023-03-13T03:56:31.198Z,11.90
2023-03-13T03:59:32.746Z,13.77
2023-03-13T04:02:34.401Z,15.30
2023-03-13T04:05:36.105Z,13.43
2023-03-13T04:08:37.646Z,12.23
2023-03-13T04:11:39.229Z,12.00
2023-03-13T04:14:40.861Z,10.23
2023-03-13T04:17:42.599Z,12.27
2023-03-13T04:20:44.270Z,9.90
2023-03-13T04:23:45.812Z,6.68
2023-03-13T04:26:47.352Z,9.82
2023-03-13T04:29:48.916Z,7.05
2023-03-13T04:32:51.102Z,7.95
2023-03-13T04:35:52.740Z,6.43
2023-03-13T04:38:54.323Z,8.75
2023-03-13T04:41:56.260Z,6.45
2023-03-13T04:44:57.805Z,7.78
2023-03-13T04:47:59.356Z,8.13
2023-03-13T04:51:00.878Z,7.65
2023-03-13T04:54:02.489Z,13.65
2023-03-13T04:57:04.183Z,8.55
2023-03-13T05:00:08.090Z,8.07
2023-03-13T05:03:09.665Z,5.65
2023-03-13T05:06:11.966Z,5.50
2023-03-13T05:09:13.535Z,5.70
2023-03-13T05:12:15.083Z,7.35
2023-03-13T05:15:16.729Z,8.60
2023-03-13T05:18:18.259Z,6.45
2023-03-13T05:21:19.826Z,4.93
2023-03-13T05:24:21.491Z,6.22
2023-03-13T05:27:23.101Z,6.18
2023-03-13T05:30:25.023Z,7.82
2023-03-13T05:33:26.571Z,5.75
2023-03-13T05:36:28.128Z,5.30
2023-03-13T05:39:29.884Z,6.75
2023-03-13T05:42:31.439Z,6.75
2023-03-13T05:45:33.251Z,3.75
2023-03-13T05:48:34.908Z,6.68
2023-03-13T05:51:36.485Z,5.90
2023-03-13T05:54:38.429Z,5.60
2023-03-13T05:57:39.966Z,7.90
2023-03-13T06:00:43.595Z,7.85
2023-03-13T06:03:45.328Z,7.15
2023-03-13T06:06:47.267Z,6.30
2023-03-13T06:09:48.873Z,7.50
2023-03-13T06:12:55.192Z,11.50
2023-03-13T06:15:58.073Z,7.97
2023-03-13T06:18:59.748Z,7.82
2023-03-13T06:22:01.289Z,6.97
2023-03-13T06:25:03.042Z,6.03
2023-03-13T06:28:04.663Z,5.57
2023-03-13T06:31:07.776Z,6.22
2023-03-13T06:34:13.424Z,5.75
2023-03-13T06:37:15.066Z,5.50
2023-03-13T06:40:16.684Z,3.90
2023-03-13T06:43:19.385Z,8.80
2023-03-13T06:46:23.881Z,6.10
2023-03-13T06:49:25.560Z,10.05
2023-03-13T06:52:41.209Z,6.40
2023-03-13T06:55:45.634Z,5.97
2023-03-13T06:58:48.361Z,5.47
2023-03-13T07:01:49.968Z,6.18
2023-03-13T07:04:51.542Z,5.78
2023-03-13T07:07:53.142Z,8.73
2023-03-13T07:10:59.347Z,4.22
2023-03-13T07:14:15.922Z,6.15
2023-03-13T07:17:18.351Z,5.25
2023-03-13T07:20:24.712Z,4.68
2023-03-13T07:23:28.764Z,9.82
2023-03-13T07:26:30.345Z,6.32
2023-03-13T07:29:31.932Z,5.03
2023-03-13T07:32:34.252Z,8.75
2023-03-13T07:35:35.846Z,6.35
2023-03-13T07:38:37.516Z,8.55
2023-03-13T07:41:40.098Z,8.95
2023-03-13T07:44:41.713Z,8.60
2023-03-13T07:47:43.268Z,5.10
2023-03-13T07:50:44.798Z,6.40
2023-03-13T07:53:50.591Z,6.80
2023-03-13T07:56:52.153Z,12.13
2023-03-13T07:59:53.706Z,9.50
2023-03-13T08:02:55.309Z,9.48
2023-03-13T08:06:01.819Z,12.38
2023-03-13T08:09:05.411Z,7.35
2023-03-13T08:12:07.798Z,10.77
2023-03-13T08:15:09.813Z,9.88
2023-03-13T08:18:11.346Z,11.00
2023-03-13T08:21:18.233Z,10.32
2023-03-13T08:24:22.297Z,8.63
2023-03-13T08:27:25.117Z,16.50
2023-03-13T08:30:26.880Z,14.05
2023-03-13T08:33:28.637Z,11.35
2023-03-13T08:36:35.723Z,11.55
2023-03-13T08:39:37.401Z,12.50
2023-03-13T08:42:40.160Z,13.50
2023-03-13T08:45:41.680Z,11.20
2023-03-13T08:48:43.287Z,11.40
2023-03-13T08:51:45.073Z,11.10
2023-03-13T08:54:48.600Z,9.40
2023-03-13T08:57:50.220Z,12.43
2023-03-13T09:00:52.102Z,13.35
2023-03-13T09:03:53.795Z,9.85
2023-03-13T09:06:55.359Z,13.38
2023-03-13T09:09:56.909Z,17.88
2023-03-13T09:13:00.760Z,10.20
2023-03-13T09:16:03.833Z,10.35
2023-03-13T09:19:05.482Z,10.15
2023-03-13T09:22:07.041Z,16.92
2023-03-13T09:25:09.041Z,11.43
2023-03-13T09:28:10.671Z,10.20
2023-03-13T09:31:15.130Z,11.10
2023-03-13T09:34:16.744Z,15.55
2023-03-13T09:37:18.422Z,8.60
2023-03-13T09:40:23.559Z,13.80
2023-03-13T09:44:04.860Z,8.93
2023-03-13T09:47:23.019Z,10.95
2023-03-13T09:50:30.176Z,9.60
2023-03-13T09:53:41.524Z,10.63
2023-03-13T09:56:56.771Z,10.13
2023-03-13T10:00:12.757Z,9.93
2023-03-13T10:03:39.270Z,11.90
2023-03-13T10:06:44.459Z,9.80
2023-03-13T10:09:46.134Z,12.13
2023-03-13T10:12:52.467Z,8.30
2023-03-13T10:16:01.228Z,12.15
2023-03-13T10:19:12.538Z,9.10
2023-03-13T10:22:21.957Z,8.60
2023-03-13T10:25:35.359Z,12.32
2023-03-13T10:28:36.908Z,9.38
2023-03-13T10:31:39.770Z,11.85
2023-03-13T10:35:01.029Z,9.85
2023-03-13T10:38:06.249Z,7.43
2023-03-13T10:41:22.821Z,7.18
2023-03-13T10:44:31.895Z,8.00
2023-03-13T10:47:34.847Z,9.25
2023-03-13T10:50:36.435Z,9.48
2023-03-13T10:53:37.989Z,8.43
2023-03-13T10:56:39.545Z,8.48
2023-03-13T10:59:45.762Z,7.57
2023-03-13T11:02:47.522Z,5.78
2023-03-13T11:06:00.555Z,5.70
2023-03-13T11:09:10.011Z,7.18
2023-03-13T11:12:20.507Z,4.30
2023-03-13T11:15:41.552Z,4.57
2023-03-13T11:18:57.720Z,5.97
2023-03-13T11:22:14.308Z,5.10
2023-03-13T11:25:36.801Z,5.40
2023-03-13T11:28:49.494Z,6.15
2023-03-13T11:31:57.801Z,3.30
2023-03-13T11:38:31.467Z,3.90
2023-03-13T11:41:36.424Z,6.13
2023-03-13T11:45:20.004Z,5.78
2023-03-13T11:49:01.500Z,4.10
2023-03-13T11:52:28.154Z,4.65
2023-03-13T11:55:56.954Z,4.75
2023-03-13T11:59:34.744Z,4.38
2023-03-13T12:03:09.870Z,2.15
2023-03-13T12:06:36.324Z,2.28
2023-03-13T12:09:45.728Z,2.00
2023-03-13T12:13:00.530Z,2.97
2023-03-13T12:16:10.172Z,3.10
2023-03-13T12:19:32.267Z,2.57
2023-03-13T12:22:51.204Z,1.92
2023-03-13T12:25:58.638Z,4.28
2023-03-13T12:29:30.697Z,3.28
2023-03-13T12:32:57.156Z,4.50
2023-03-13T12:36:32.213Z,5.50
2023-03-13T12:39:41.802Z,1.77
2023-03-13T12:43:15.308Z,2.95
2023-03-13T12:46:19.615Z,2.75
2023-03-13T12:49:54.197Z,4.72
2023-03-13T12:53:10.944Z,2.40
2023-03-13T12:56:22.800Z,4.60
2023-03-13T12:59:32.473Z,2.47
2023-03-13T13:02:34.160Z,9.07
2023-03-13T13:05:36.831Z,2.03
2023-03-13T13:09:06.460Z,5.32
2023-03-13T13:12:22.598Z,1.67
2023-03-13T13:15:28.957Z,3.90
2023-03-13T13:18:32.499Z,2.10
2023-03-13T13:21:34.073Z,4.68
2023-03-13T13:24:49.956Z,2.08
2023-03-13T13:27:51.929Z,5.57
2023-03-13T13:30:56.240Z,3.08
2023-03-13T13:33:57.996Z,2.65
2023-03-13T13:37:14.707Z,2.15
2023-03-13T13:40:16.490Z,2.28
2023-03-13T13:43:23.275Z,1.88
2023-03-13T13:46:33.597Z,1.55
2023-03-13T13:49:37.852Z,5.18
2023-03-13T13:52:40.843Z,2.53
2023-03-13T13:55:44.154Z,3.17
2023-03-13T13:58:47.016Z,5.18
2023-03-13T14:01:51.551Z,1.90
2023-03-13T14:04:56.225Z,2.08
2023-03-13T14:08:07.995Z,2.47
2023-03-13T14:11:32.455Z,3.33
2023-03-13T14:14:34.018Z,3.78
2023-03-13T14:17:52.764Z,3.67
2023-03-13T14:20:54.300Z,3.63
2023-03-13T14:23:56.069Z,2.40
2023-03-13T14:26:57.841Z,3.05
2023-03-13T14:30:09.048Z,2.05
2023-03-13T14:33:11.145Z,3.63
2023-03-13T14:36:12.723Z,3.35
2023-03-13T14:39:31.452Z,5.38
2023-03-13T14:42:45.529Z,5.72
2023-03-13T14:45:49.007Z,5.50
2023-03-13T14:48:55.528Z,6.13
2023-03-13T14:52:14.710Z,6.88
2023-03-13T14:55:24.360Z,4.95
2023-03-13T14:58:30.663Z,21.93
2023-03-13T15:01:32.217Z,9.77
2023-03-13T15:05:06.394Z,6.68
2023-03-13T15:08:19.111Z,8.75
2023-03-13T15:11:33.786Z,7.30
2023-03-13T15:14:37.665Z,3.58
2023-03-13T15:17:39.330Z,2.85
2023-03-13T15:25:14.408Z,3.17
2023-03-13T15:28:21.553Z,3.78
2023-03-13T15:31:27.932Z,4.82
2023-03-13T15:34:30.440Z,4.28
2023-03-13T15:37:32.122Z,4.65
2023-03-13T15:40:33.775Z,3.17
2023-03-13T15:43:35.974Z,2.78
2023-03-13T15:46:37.568Z,3.38
2023-03-13T15:49:39.132Z,3.50
2023-03-13T15:52:40.787Z,3.13
2023-03-13T15:55:43.018Z,4.05
2023-03-13T15:58:45.736Z,2.55
2023-03-13T16:01:48.347Z,4.03
2023-03-13T16:04:50.474Z,3.92
2023-03-13T16:07:52.166Z,3.63
2023-03-13T16:10:54.412Z,4.20
2023-03-13T16:13:56.878Z,4.53
2023-03-13T16:16:59.171Z,3.50
2023-03-13T16:20:00.770Z,4.57
2023-03-13T16:23:03.731Z,5.25
2023-03-13T16:26:13.465Z,7.63
2023-03-13T16:29:16.641Z,6.87
2023-03-13T16:32:20.233Z,3.88
2023-03-13T16:35:22.640Z,4.25
2023-03-13T16:38:25.034Z,6.15
2023-03-13T16:41:28.288Z,3.45
2023-03-13T16:44:29.959Z,6.45
2023-03-13T16:47:31.627Z,6.55
2023-03-13T16:50:36.089Z,8.25
2023-03-13T16:53:37.798Z,4.10
2023-03-13T16:56:42.985Z,9.55
2023-03-13T16:59:45.009Z,8.52
2023-03-13T17:02:46.800Z,9.70
2023-03-13T17:05:48.543Z,8.18
2023-03-13T17:08:50.312Z,6.18
2023-03-13T17:11:52.279Z,6.18
2023-03-13T17:14:53.811Z,7.18
2023-03-13T17:17:56.064Z,5.53
2023-03-13T17:20:57.641Z,5.32
2023-03-13T17:24:02.784Z,9.05
2023-03-13T17:27:04.544Z,10.27
2023-03-13T17:30:26.514Z,6.95
2023-03-13T17:33:28.074Z,9.35
2023-03-13T17:36:29.731Z,4.50
2023-03-13T17:39:31.350Z,9.27
2023-03-13T17:42:32.940Z,6.57
2023-03-13T17:45:36.808Z,7.85
2023-03-13T17:48:38.355Z,6.05
2023-03-13T17:51:41.478Z,6.18
2023-03-13T17:54:44.803Z,6.40
2023-03-13T17:57:48.183Z,8.32
2023-03-13T18:00:50.686Z,7.38
2023-03-13T18:03:52.319Z,9.45
2023-03-13T18:06:53.873Z,7.18
2023-03-13T18:09:55.514Z,6.55
2023-03-13T18:12:57.329Z,10.05
2023-03-13T18:15:58.927Z,6.72
2023-03-13T18:19:00.491Z,11.50
2023-03-13T18:22:02.105Z,8.77
2023-03-13T18:25:03.853Z,11.13
2023-03-13T18:28:06.422Z,7.60
2023-03-13T18:31:11.009Z,7.70
2023-03-13T18:34:12.672Z,9.48
2023-03-13T18:37:34.598Z,9.88
2023-03-13T18:40:36.328Z,11.32
2023-03-13T18:43:38.401Z,12.75
2023-03-13T18:46:40.482Z,9.98
2023-03-13T18:49:42.199Z,8.20
2023-03-13T18:52:43.738Z,6.75
2023-03-13T18:55:45.314Z,8.02
2023-03-13T18:58:50.349Z,6.40
2023-03-13T19:01:52.370Z,11.90
2023-03-13T19:04:53.981Z,7.05
2023-03-13T19:07:55.553Z,11.48
2023-03-13T19:10:57.195Z,10.07
2023-03-13T19:13:59.278Z,5.43
2023-03-13T19:17:00.913Z,12.27
2023-03-13T19:20:04.149Z,13.63
2023-03-13T19:23:05.696Z,7.88
2023-03-13T19:26:21.380Z,11.48
2023-03-13T19:29:25.524Z,11.82
2023-03-13T19:32:27.156Z,10.45
2023-03-13T19:35:28.749Z,11.27
2023-03-13T19:38:30.411Z,8.88
2023-03-13T19:41:31.954Z,9.98
2023-03-13T19:44:34.007Z,12.45
2023-03-13T19:47:35.567Z,9.38
2023-03-13T19:50:37.298Z,6.75
2023-03-13T19:53:39.627Z,10.70
2023-03-13T19:56:44.601Z,8.05
2023-03-13T19:59:46.197Z,10.80
2023-03-13T20:02:47.861Z,10.95
2023-03-13T20:05:51.238Z,8.93
2023-03-13T20:08:58.326Z,9.98
2023-03-13T20:11:59.891Z,15.02
2023-03-13T20:15:01.484Z,13.68
2023-03-13T20:18:03.101Z,6.78
2023-03-13T20:21:05.177Z,8.63
2023-03-13T20:24:07.056Z,13.43
2023-03-13T20:27:08.662Z,15.25
2023-03-13T20:30:10.935Z,13.95
2023-03-13T20:33:12.661Z,9.63
2023-03-13T20:36:16.437Z,7.90
2023-03-13T20:39:17.984Z,10.25
2023-03-13T20:42:20.915Z,9.88
2023-03-13T20:45:22.620Z,13.13
2023-03-13T20:48:26.037Z,11.13
2023-03-13T20:51:28.789Z,10.25
2023-03-13T20:54:30.354Z,9.88
2023-03-13T20:57:31.886Z,8.55
2023-03-13T21:00:35.158Z,10.77
2023-03-13T21:03:54.716Z,10.75
2023-03-13T21:07:02.947Z,13.20
2023-03-13T21:10:04.941Z,11.95
2023-03-13T21:13:07.621Z,9.52
2023-03-13T21:16:09.756Z,10.52
2023-03-13T21:19:14.218Z,9.63
2023-03-13T21:22:15.771Z,9.18
2023-03-13T21:25:19.501Z,17.05
2023-03-13T21:28:21.647Z,14.27
2023-03-13T21:31:23.364Z,9.60
2023-03-13T21:34:25.335Z,13.65
2023-03-13T21:37:28.233Z,12.60
2023-03-13T21:40:30.095Z,7.57
2023-03-13T21:43:33.462Z,10.55
2023-03-13T21:46:38.252Z,6.78
2023-03-13T21:49:39.879Z,8.90
2023-03-13T21:52:42.255Z,8.98
2023-03-13T21:55:43.928Z,6.68
2023-03-13T21:58:45.759Z,9.82
2023-03-13T22:01:48.276Z,10.57
2023-03-13T22:04:49.811Z,8.80
2023-03-13T22:07:51.433Z,10.13
2023-03-13T22:10:54.905Z,10.27
2023-03-13T22:13:56.824Z,6.40
2023-03-13T22:16:58.381Z,11.27
2023-03-13T22:19:59.942Z,11.65
2023-03-13T22:23:01.562Z,10.80
2023-03-13T22:26:03.481Z,9.80
2023-03-13T22:29:05.403Z,11.40
2023-03-13T22:32:06.992Z,9.30
2023-03-13T22:35:08.862Z,9.95
2023-03-13T22:38:10.855Z,10.18
2023-03-13T22:41:13.702Z,7.70
2023-03-13T22:44:16.341Z,9.55
2023-03-13T22:47:17.885Z,8.55
2023-03-13T22:50:20.857Z,10.73
2023-03-13T22:53:22.419Z,8.95
2023-03-13T22:56:26.448Z,12.85
2023-03-13T22:59:28.869Z,7.50
2023-03-13T23:02:30.546Z,13.13
2023-03-13T23:05:32.306Z,12.98
2023-03-13T23:08:34.298Z,12.18
2023-03-13T23:11:36.182Z,12.05
2023-03-13T23:14:38.232Z,5.20
2023-03-13T23:17:40.286Z,10.20
2023-03-13T23:20:41.843Z,8.48
2023-03-13T23:23:44.132Z,8.50
2023-03-13T23:26:45.722Z,12.95
2023-03-13T23:29:47.415Z,6.72
2023-03-13T23:32:49.093Z,11.85
2023-03-13T23:35:50.870Z,9.43
2023-03-13T23:38:54.535Z,13.68
2023-03-13T23:41:56.199Z,9.77
2023-03-13T23:44:57.762Z,12.27
2023-03-13T23:47:59.382Z,12.43
2023-03-13T23:51:05.924Z,11.18
2023-03-13T23:54:07.611Z,12.35
2023-03-13T23:57:09.151Z,12.13
